Time;durP1;ratioP1;P1;durP2;ratioP2;P2;SDS_P1;SDS_P2;PMS_P1;PMS_P2;Temp;Humidity;BMP_temperature;BMP_pressure;BME280_temperature;BME280_humidity;BME280_pressure;Samples;Min_cycle;Max_cycle;Signal;HPM_P1;HPM_P2
2023/03/19 00:00:53;;;;;;;37.33;22.02;;;;;;;7.84;49.48;97676.47;9935454;29;20090;-77
2023/03/19 00:06:18;;;;;;;41.72;22.77;;;;;;;7.82;49.58;97670.75;9872495;30;20070;-77
2023/03/19 00:11:39;;;;;;;37.75;21.92;;;;;;;7.74;49.69;97677.16;9883389;30;20491;-76
2023/03/19 00:17:00;;;;;;;39.15;22.85;;;;;;;7.73;50.40;97686.78;9883135;30;20066;-77
2023/03/19 00:22:21;;;;;;;38.15;21.65;;;;;;;7.70;50.17;97690.72;9895625;30;20070;-77
2023/03/19 00:27:43;;;;;;;37.60;22.30;;;;;;;7.60;50.29;97691.97;9895404;30;20058;-77
2023/03/19 00:33:04;;;;;;;40.40;22.65;;;;;;;7.53;50.56;97688.00;9895351;30;20059;-77
2023/03/19 00:38:25;;;;;;;41.30;22.00;;;;;;;7.54;50.61;97686.69;9882428;30;20117;-77
2023/03/19 00:43:46;;;;;;;39.95;22.50;;;;;;;7.50;51.08;97688.41;9894851;30;20051;-77
2023/03/19 00:49:07;;;;;;;39.08;22.77;;;;;;;7.42;50.99;97691.28;9882407;30;20063;-77
2023/03/19 00:54:27;;;;;;;38.15;22.70;;;;;;;7.33;51.18;97683.63;9882893;30;20051;-77
2023/03/19 00:59:49;;;;;;;37.03;22.45;;;;;;;7.25;51.53;97691.31;9894862;30;20086;-76
2023/03/19 01:05:10;;;;;;;38.85;22.60;;;;;;;7.19;51.26;97680.47;9882172;30;20051;-77
2023/03/19 01:10:32;;;;;;;38.30;22.98;;;;;;;7.18;51.73;97679.72;9882281;30;20063;-77
2023/03/19 01:15:53;;;;;;;37.88;22.00;;;;;;;7.13;51.99;97677.94;9882100;30;20063;-77
2023/03/19 01:21:14;;;;;;;39.75;21.83;;;;;;;7.05;52.23;97671.03;9906870;29;20059;-77
2023/03/19 01:26:39;;;;;;;38.08;22.45;;;;;;;6.93;52.31;97675.59;9894768;30;20067;-77
2023/03/19 01:32:09;;;;;;;40.03;22.85;;;;;;;6.87;52.78;97681.41;9862944;30;20144;-77
2023/03/19 01:37:49;;;;;;;35.08;22.02;;;;;;;6.87;53.01;97673.81;9880155;29;20122;-77
2023/03/19 01:43:29;;;;;;;37.08;24.05;;;;;;;6.83;53.27;97687.34;9874178;30;20136;-77
2023/03/19 01:49:01;;;;;;;37.88;23.00;;;;;;;6.80;53.30;97676.66;9874198;29;20148;-78
2023/03/19 01:54:23;;;;;;;36.33;22.25;;;;;;;6.75;53.52;97672.06;9864759;29;20112;-77
2023/03/19 01:59:53;;;;;;;39.75;22.80;;;;;;;6.72;53.64;97667.69;9873104;30;20079;-77
2023/03/19 02:05:32;;;;;;;38.13;21.88;;;;;;;6.67;53.43;97660.34;9892451;29;20139;-78
2023/03/19 02:10:59;;;;;;;38.10;20.88;;;;;;;6.57;54.21;97658.22;9867322;30;20082;-77
2023/03/19 02:16:20;;;;;;;36.53;22.02;;;;;;;6.56;53.75;97661.53;9880853;29;20458;-77
2023/03/19 02:21:41;;;;;;;38.28;22.17;;;;;;;6.48;53.99;97661.63;9868173;30;20452;-77
2023/03/19 02:27:02;;;;;;;36.42;22.35;;;;;;;6.41;54.35;97656.88;9897001;30;20052;-77
2023/03/19 02:32:23;;;;;;;38.97;23.73;;;;;;;6.37;54.11;97662.13;9873950;30;20090;-77
2023/03/19 02:37:44;;;;;;;39.10;22.98;;;;;;;6.30;54.96;97660.13;9891187;30;20067;-77
2023/03/19 02:43:05;;;;;;;41.08;22.63;;;;;;;6.25;54.48;97661.09;9865450;30;20051;-78
2023/03/19 02:48:25;;;;;;;38.20;22.58;;;;;;;6.16;55.12;97670.78;9882342;30;20052;-77
2023/03/19 02:53:46;;;;;;;40.80;23.17;;;;;;;6.14;55.02;97680.97;9884436;30;20059;-77
2023/03/19 02:59:08;;;;;;;44.08;23.30;;;;;;;6.15;55.36;97674.13;9848976;30;20056;-77
2023/03/19 03:04:30;;;;;;;38.78;22.83;;;;;;;6.17;55.39;97677.78;9847850;30;20056;-77
2023/03/19 03:09:51;;;;;;;37.53;22.25;;;;;;;6.20;56.00;97684.25;9848572;30;20469;-77
2023/03/19 03:15:13;;;;;;;38.65;22.98;;;;;;;6.13;55.54;97687.81;9860797;30;20060;-77
2023/03/19 03:20:34;;;;;;;40.55;23.40;;;;;;;6.09;55.46;97681.94;9848162;30;20059;-77
2023/03/19 03:25:55;;;;;;;39.25;23.73;;;;;;;6.02;55.58;97684.19;9859280;30;20062;-77
2023/03/19 03:31:16;;;;;;;40.90;24.35;;;;;;;6.02;56.39;97692.50;9867433;30;20080;-77
2023/03/19 03:36:37;;;;;;;44.13;24.35;;;;;;;5.98;56.75;97677.56;9863286;30;20090;-77
2023/03/19 03:41:59;;;;;;;43.50;24.45;;;;;;;6.00;56.72;97686.06;9877691;30;20052;-77
2023/03/19 03:47:23;;;;;;;41.58;24.50;;;;;;;6.05;57.10;97687.88;9858746;30;20063;-77
2023/03/19 03:52:44;;;;;;;38.90;23.65;;;;;;;6.05;56.72;97676.78;9847374;30;20063;-77
2023/03/19 03:58:05;;;;;;;47.03;26.23;;;;;;;6.03;57.18;97685.66;9871945;30;20113;-77
2023/03/19 04:03:26;;;;;;;43.70;26.02;;;;;;;6.07;57.08;97690.78;9847215;30;20136;-77
2023/03/19 04:08:47;;;;;;;46.72;25.98;;;;;;;6.05;57.62;97681.59;9859592;30;20079;-77
2023/03/19 04:14:09;;;;;;;44.95;26.20;;;;;;;6.10;57.29;97684.16;9847630;30;20079;-77
2023/03/19 04:19:31;;;;;;;44.05;25.00;;;;;;;6.12;57.39;97680.81;9860425;30;20056;-77
2023/03/19 04:24:52;;;;;;;45.67;25.73;;;;;;;6.01;57.15;97685.50;9877747;30;20076;-77
2023/03/19 04:30:14;;;;;;;41.15;25.38;;;;;;;5.89;57.60;97692.03;9863417;30;20056;-77
2023/03/19 04:35:35;;;;;;;39.67;23.40;;;;;;;5.80;57.83;97700.97;9858005;30;20096;-77
2023/03/19 04:40:56;;;;;;;38.55;23.60;;;;;;;5.74;58.10;97693.59;9846924;30;20063;-77
2023/03/19 04:46:17;;;;;;;40.33;23.10;;;;;;;5.72;58.14;97698.22;9845983;30;20124;-76
2023/03/19 04:51:38;;;;;;;41.13;22.13;;;;;;;5.71;58.29;97710.59;9858008;30;20152;-77
2023/03/19 04:57:00;;;;;;;38.38;21.85;;;;;;;5.70;58.03;97698.06;9845740;30;20484;-77
2023/03/19 05:02:26;;;;;;;41.55;22.73;;;;;;;5.77;58.20;97696.53;9859026;30;20091;-77
2023/03/19 05:07:49;;;;;;;36.90;22.77;;;;;;;5.86;58.42;97707.00;9846381;30;20465;-77
2023/03/19 05:13:10;;;;;;;37.47;23.92;;;;;;;5.77;59.16;97702.81;9857700;30;20055;-76
2023/03/19 05:18:36;;;;;;;41.58;24.20;;;;;;;5.80;58.68;97707.22;9846628;30;20077;-77
2023/03/19 05:24:00;;;;;;;40.55;24.48;;;;;;;5.77;59.67;97711.09;9857865;30;20499;-78
2023/03/19 05:29:26;;;;;;;40.25;23.92;;;;;;;5.85;58.96;97705.53;9849522;30;20063;-77
2023/03/19 05:35:13;;;;;;;39.67;24.10;;;;;;;5.88;59.29;97699.59;9881127;30;20051;-78
2023/03/19 05:40:34;;;;;;;42.65;24.30;;;;;;;5.94;59.39;97711.22;9851913;30;20064;-77
2023/03/19 05:46:10;;;;;;;35.40;22.30;;;;;;;6.00;59.38;97731.13;9876501;30;20062;-78
2023/03/19 05:51:31;;;;;;;45.38;23.80;;;;;;;6.18;59.16;97717.34;9876447;30;20090;-77
2023/03/19 05:56:52;;;;;;;36.63;22.45;;;;;;;6.35;59.29;97719.41;9875987;30;20113;-78
2023/03/19 06:02:26;;;;;;;37.95;22.45;;;;;;;6.45;59.11;97728.56;9854352;30;20068;-77
2023/03/19 06:08:03;;;;;;;38.88;23.23;;;;;;;6.58;58.84;97726.25;9882732;30;20117;-78
2023/03/19 06:13:45;;;;;;;40.75;22.92;;;;;;;6.76;58.73;97734.59;9879538;30;20130;-78
2023/03/19 06:19:09;;;;;;;39.25;25.55;;;;;;;7.08;58.52;97747.59;9875521;30;20055;-77
2023/03/19 06:24:30;;;;;;;38.67;24.13;;;;;;;7.33;58.15;97750.25;9869385;30;20054;-78
2023/03/19 06:29:51;;;;;;;41.22;25.02;;;;;;;7.44;57.55;97758.84;9873495;30;20080;-78
2023/03/19 06:35:17;;;;;;;42.25;24.55;;;;;;;8.06;58.27;97744.13;9867806;30;20432;-78
2023/03/19 06:40:41;;;;;;;36.35;23.80;;;;;;;8.98;56.79;97744.16;9891990;29;20134;-78
2023/03/19 06:46:05;;;;;;;40.97;24.25;;;;;;;9.51;55.45;97750.75;9885195;29;20052;-78
2023/03/19 06:51:29;;;;;;;41.08;25.38;;;;;;;9.30;54.77;97750.59;9886328;29;20066;-78
2023/03/19 06:56:50;;;;;;;44.92;26.33;;;;;;;9.25;54.98;97754.41;9874652;30;20055;-78
2023/03/19 07:02:11;;;;;;;43.25;26.75;;;;;;;9.38;55.08;97740.06;9862451;30;20094;-78
2023/03/19 07:07:32;;;;;;;42.63;26.85;;;;;;;9.37;53.70;97772.03;9851150;30;20419;-78
2023/03/19 07:12:53;;;;;;;46.60;26.98;;;;;;;9.25;54.56;97777.41;9850232;30;20098;-78
2023/03/19 07:18:13;;;;;;;43.65;26.00;;;;;;;9.44;53.92;97794.13;9881510;30;20059;-79
2023/03/19 07:23:34;;;;;;;35.20;22.13;;;;;;;9.78;53.88;97786.78;9887831;30;20546;-78
2023/03/19 07:28:55;;;;;;;38.38;23.02;;;;;;;10.17;52.81;97775.56;9893585;30;20079;-78
2023/03/19 07:34:16;;;;;;;35.38;22.25;;;;;;;10.55;51.05;97803.34;9863536;30;20064;-79
2023/03/19 07:39:37;;;;;;;33.47;21.50;;;;;;;10.70;51.18;97804.31;9850802;30;20125;-78
2023/03/19 07:45:01;;;;;;;33.38;22.42;;;;;;;11.23;47.39;97799.44;9870755;30;20081;-75
2023/03/19 07:50:22;;;;;;;33.20;21.63;;;;;;;12.36;47.86;97802.44;9882718;30;20110;-76
2023/03/19 07:55:43;;;;;;;33.90;19.77;;;;;;;11.94;47.30;97795.63;9858389;30;20063;-76
2023/03/19 08:01:03;;;;;;;30.85;21.02;;;;;;;11.64;47.14;97797.94;9856747;30;20080;-78
2023/03/19 08:06:25;;;;;;;30.15;19.63;;;;;;;12.30;47.36;97811.91;9850873;30;20055;-78
2023/03/19 08:11:46;;;;;;;29.40;20.10;;;;;;;13.63;46.58;97825.34;9863047;30;20087;-76
2023/03/19 08:17:07;;;;;;;29.90;19.73;;;;;;;14.93;43.61;97812.72;9892677;29;20064;-76
2023/03/19 08:22:28;;;;;;;25.75;19.05;;;;;;;16.55;39.26;97810.69;9902937;30;20062;-76
2023/03/19 08:27:49;;;;;;;25.80;18.17;;;;;;;16.82;40.37;97807.72;9912358;29;20062;-79
2023/03/19 08:33:10;;;;;;;25.75;18.15;;;;;;;16.45;39.82;97813.78;9933592;29;20063;-77
2023/03/19 08:38:30;;;;;;;26.80;18.52;;;;;;;18.15;39.45;97819.59;9910370;29;20519;-78
2023/03/19 08:43:52;;;;;;;24.80;17.52;;;;;;;19.09;36.37;97806.81;9907862;29;20138;-78
2023/03/19 08:49:12;;;;;;;25.70;17.65;;;;;;;19.08;34.55;97808.19;9858076;30;20067;-79
2023/03/19 08:54:33;;;;;;;24.80;16.77;;;;;;;20.92;33.31;97789.22;9845498;30;20461;-78
2023/03/19 08:59:54;;;;;;;26.73;14.32;;;;;;;23.91;28.85;97792.19;9857476;30;20139;-78
2023/03/19 09:05:15;;;;;;;19.13;13.38;;;;;;;27.06;24.34;97803.16;9875610;30;20059;-79
2023/03/19 09:10:36;;;;;;;17.48;12.65;;;;;;;28.23;23.92;97813.31;9852550;30;20066;-79
2023/03/19 09:15:57;;;;;;;15.50;12.17;;;;;;;28.38;20.93;97822.66;9852629;30;20462;-79
2023/03/19 09:21:18;;;;;;;17.88;12.10;;;;;;;29.33;17.99;97813.69;9852183;30;20078;-80
2023/03/19 09:26:39;;;;;;;13.18;9.73;;;;;;;29.69;19.00;97809.16;9852355;30;20067;-80
2023/03/19 09:32:00;;;;;;;13.80;9.70;;;;;;;29.20;18.22;97806.59;9864295;30;20099;-80
2023/03/19 09:37:22;;;;;;;14.52;10.32;;;;;;;27.83;16.18;97809.06;9852007;30;20776;-79
2023/03/19 09:43:17;;;;;;;11.20;9.18;;;;;;;27.79;16.82;97803.28;9851554;30;20495;-77
2023/03/19 09:48:57;;;;;;;10.05;8.27;;;;;;;29.35;16.46;97810.81;9863704;30;20059;-79
2023/03/19 09:54:28;;;;;;;10.77;8.40;;;;;;;28.76;15.94;97816.81;9852022;30;20060;-79
2023/03/19 09:59:52;;;;;;;11.50;8.73;;;;;;;27.68;17.07;97813.34;9863169;30;20059;-79
2023/03/19 10:05:29;;;;;;;12.93;9.15;;;;;;;27.83;16.99;97802.59;9851110;30;20143;-79
2023/03/19 10:10:55;;;;;;;14.60;9.88;;;;;;;27.70;16.03;97807.63;9862905;30;20487;-79
2023/03/19 10:16:19;;;;;;;21.13;15.50;;;;;;;27.05;17.03;97798.88;9862068;30;20523;-79
2023/03/19 10:22:04;;;;;;;24.25;14.05;;;;;;;28.39;16.19;97807.59;9862312;30;20060;-80
2023/03/19 10:27:28;;;;;;;18.27;13.25;;;;;;;31.14;15.49;97793.31;9850526;30;20055;-81
2023/03/19 10:32:53;;;;;;;16.20;11.60;;;;;;;31.28;14.21;97793.88;9850035;30;20060;-81
2023/03/19 10:38:24;;;;;;;15.25;12.25;;;;;;;31.33;13.22;97782.97;9861969;30;20143;-80
2023/03/19 10:43:51;;;;;;;15.73;11.95;;;;;;;30.91;13.47;97781.38;9861875;30;20083;-80
2023/03/19 10:49:13;;;;;;;16.77;11.90;;;;;;;30.09;14.38;97770.00;9849733;30;20518;-80
2023/03/19 10:54:34;;;;;;;18.58;15.10;;;;;;;28.43;14.80;97775.28;9861520;30;20062;-80
2023/03/19 10:59:54;;;;;;;17.02;12.73;;;;;;;28.21;15.20;97773.88;9848861;30;20062;-80
2023/03/19 11:05:25;;;;;;;20.27;13.47;;;;;;;27.99;14.58;97773.91;9860761;30;20063;-80
2023/03/19 11:10:47;;;;;;;20.80;13.13;;;;;;;24.19;16.67;97766.25;9860912;30;20087;-80
2023/03/19 11:16:09;;;;;;;17.05;13.05;;;;;;;21.86;19.43;97775.31;9883834;30;20704;-78
2023/03/19 11:21:31;;;;;;;19.17;13.18;;;;;;;20.54;19.68;97775.38;9880542;29;20059;-78
2023/03/19 11:26:54;;;;;;;19.63;13.17;;;;;;;20.76;21.42;97761.13;9870710;30;20055;-78
2023/03/19 11:32:41;;;;;;;19.23;14.05;;;;;;;20.15;21.75;97767.09;9869439;29;20514;-78
2023/03/19 11:38:02;;;;;;;21.02;14.02;;;;;;;19.99;21.80;97765.25;9889167;30;20479;-78
2023/03/19 11:43:35;;;;;;;21.60;14.57;;;;;;;19.74;22.54;97754.53;9862389;30;20135;-75
2023/03/19 11:49:18;;;;;;;21.77;14.63;;;;;;;19.61;22.45;97750.59;10598121;27;20368;-78
2023/03/19 11:54:55;;;;;;;20.65;14.00;;;;;;;19.71;22.64;97745.25;10518967;28;20075;-79
2023/03/19 12:00:48;;;;;;;21.15;14.30;;;;;;;19.58;23.43;97751.16;10520663;28;20040;-84
2023/03/19 12:06:15;;;;;;;20.60;15.10;;;;;;;19.26;23.41;97745.13;10468060;28;20489;-82
2023/03/19 12:11:47;;;;;;;23.33;14.18;;;;;;;18.83;23.79;97743.69;10476720;28;20064;-83
2023/03/19 12:17:42;;;;;;;20.50;13.38;;;;;;;18.63;24.39;97751.44;10477211;28;20045;-78
2023/03/19 12:23:03;;;;;;;20.35;14.43;;;;;;;18.20;24.85;97747.03;10478873;28;20041;-76
2023/03/19 12:28:26;;;;;;;22.73;14.30;;;;;;;18.07;24.64;97745.84;10489860;28;20079;-79
2023/03/19 12:33:47;;;;;;;;;;;;;;;17.83;25.88;97742.78;10462633;28;20045;-78
2023/03/19 12:39:13;;;;;;;22.88;13.90;;;;;;;17.96;26.38;97736.25;10509927;28;19948;-76
2023/03/19 12:44:38;;;;;;;20.92;12.90;;;;;;;18.46;25.30;97741.63;10493331;28;20498;-78
2023/03/19 12:50:02;;;;;;;24.95;14.30;;;;;;;18.92;25.63;97736.94;10480733;28;20036;-79
2023/03/19 12:55:44;;;;;;;22.73;14.70;;;;;;;19.02;25.61;97736.56;10517368;28;20044;-76
2023/03/19 13:01:11;;;;;;;22.50;14.52;;;;;;;18.96;25.54;97734.25;10503135;28;20036;-81
2023/03/19 13:06:37;;;;;;;23.88;14.85;;;;;;;18.99;25.59;97727.28;10475390;28;20044;-81
2023/03/19 13:12:06;;;;;;;20.77;14.63;;;;;;;18.94;25.67;97737.00;10488737;28;20049;-81
2023/03/19 13:17:52;;;;;;;24.05;15.88;;;;;;;18.52;26.11;97733.34;10475422;28;20044;-79
2023/03/19 13:23:16;;;;;;;27.77;15.77;;;;;;;18.40;26.37;97736.47;10487869;28;20471;-79
2023/03/19 13:29:15;;;;;;;26.77;16.77;;;;;;;18.34;27.37;97744.00;10474899;28;20067;-76
2023/03/19 13:34:36;;;;;;;24.58;16.63;;;;;;;18.29;26.56;97735.38;10426458;28;20049;-76
2023/03/19 13:39:57;;;;;;;27.48;17.13;;;;;;;18.33;26.96;97731.97;10420339;28;20045;-81
2023/03/19 13:45:27;;;;;;;24.48;16.30;;;;;;;18.05;27.15;97733.72;10432097;28;20395;-75
2023/03/19 13:51:00;;;;;;;25.27;16.30;;;;;;;17.74;27.74;97736.09;10452310;28;20037;-79
2023/03/19 13:56:22;;;;;;;24.95;16.23;;;;;;;17.60;28.26;97732.69;10449787;28;20052;-77
2023/03/19 14:01:50;;;;;;;26.65;16.20;;;;;;;17.59;28.48;97727.72;10433541;28;20430;-76
2023/03/19 14:07:12;;;;;;;26.85;17.15;;;;;;;17.53;28.79;97735.91;10427183;28;20049;-76
2023/03/19 14:12:37;;;;;;;27.38;17.75;;;;;;;17.43;28.91;97728.50;10451952;28;20056;-77
2023/03/19 14:18:02;;;;;;;29.13;18.58;;;;;;;17.23;29.43;97729.78;10459894;28;20074;-79
2023/03/19 14:23:24;;;;;;;26.88;18.88;;;;;;;17.05;29.53;97730.47;10472330;28;20037;-77
2023/03/19 14:29:01;;;;;;;27.63;18.63;;;;;;;16.93;30.53;97720.78;10487930;28;20041;-78
2023/03/19 14:34:28;;;;;;;26.50;19.05;;;;;;;16.91;30.42;97715.78;10472180;28;20048;-77
2023/03/19 14:40:39;;;;;;;32.22;19.10;;;;;;;16.78;31.64;97719.44;10472651;28;20413;-78
2023/03/19 14:46:04;;;;;;;27.40;18.85;;;;;;;16.57;30.91;97717.81;10483472;28;20056;-80
2023/03/19 14:51:45;;;;;;;28.25;18.77;;;;;;;16.44;31.40;97718.66;10434276;28;20068;-76
2023/03/19 14:57:25;;;;;;;26.92;17.88;;;;;;;16.38;32.39;97724.72;10463125;28;20497;-76
2023/03/19 15:02:50;;;;;;;32.53;19.15;;;;;;;16.47;32.25;97720.19;10419709;28;20053;-77
2023/03/19 15:08:11;;;;;;;31.13;19.80;;;;;;;16.40;32.58;97710.00;10419921;28;20124;-76
2023/03/19 15:14:06;;;;;;;32.33;19.25;;;;;;;16.28;33.56;97724.28;10457208;28;20051;-76
2023/03/19 15:19:29;;;;;;;33.75;21.17;;;;;;;16.05;32.90;97704.94;10464219;28;20037;-75
2023/03/19 15:24:50;;;;;;;35.70;21.83;;;;;;;15.68;33.70;97709.59;10454437;28;20051;-76
2023/03/19 15:30:23;;;;;;;33.78;21.55;;;;;;;15.49;34.27;97707.25;10457362;28;20433;-76
2023/03/19 15:35:44;;;;;;;33.45;22.65;;;;;;;15.27;34.83;97709.72;10442501;28;20044;-76
2023/03/19 15:41:06;;;;;;;32.78;23.10;;;;;;;15.09;34.98;97725.69;10447887;28;20403;-76
2023/03/19 15:46:31;;;;;;;33.00;22.15;;;;;;;14.93;35.29;97724.88;10434466;28;20403;-76
2023/03/19 15:51:54;;;;;;;40.85;23.80;;;;;;;14.69;36.13;97730.00;10455393;28;20045;-76
2023/03/19 15:57:15;;;;;;;42.05;24.58;;;;;;;14.57;36.56;97714.00;10476785;28;20143;-76
2023/03/19 16:02:40;;;;;;;41.50;26.38;;;;;;;14.44;37.21;97723.09;10491663;28;20102;-78
2023/03/19 16:08:18;;;;;;;37.53;24.17;;;;;;;14.29;37.33;97729.34;10482991;28;20041;-77
2023/03/19 16:21:49;;;;;;;33.53;23.77;;;;;;;14.07;38.39;97747.78;10633322;28;20024;-83
2023/03/19 16:33:25;;;;;;;35.67;25.05;;;;;;;13.83;39.19;97756.34;10988718;23;20053;-80
2023/03/19 16:39:12;;;;;;;38.78;24.02;;;;;;;13.72;39.95;97771.91;10232156;29;20059;-80
2023/03/19 16:44:35;;;;;;;36.78;23.95;;;;;;;13.62;40.07;97770.59;10222416;29;20048;-79
2023/03/19 16:49:56;;;;;;;42.70;26.27;;;;;;;13.52;40.33;97781.25;10222625;29;20071;-78
2023/03/19 16:55:20;;;;;;;39.33;23.52;;;;;;;13.44;40.68;97782.25;10214592;29;20091;-75
2023/03/19 17:00:45;;;;;;;41.55;24.80;;;;;;;13.35;41.17;97783.13;10194910;29;20039;-75
2023/03/19 17:06:07;;;;;;;39.45;25.25;;;;;;;13.28;41.39;97786.91;10183340;29;20146;-75
2023/03/19 17:11:29;;;;;;;40.38;24.48;;;;;;;13.20;41.39;97791.31;10195267;29;20398;-77
2023/03/19 17:16:58;;;;;;;35.67;23.70;;;;;;;13.13;41.96;97799.38;10201444;29;20087;-76
2023/03/19 17:22:19;;;;;;;38.05;24.95;;;;;;;13.08;42.09;97806.06;10198893;29;20063;-77
2023/03/19 17:27:39;;;;;;;33.08;23.75;;;;;;;13.03;42.42;97809.25;10196455;29;20040;-76
2023/03/19 17:33:00;;;;;;;37.40;25.08;;;;;;;12.98;42.87;97804.75;10186266;29;20055;-77
2023/03/19 17:38:21;;;;;;;39.17;25.50;;;;;;;12.96;43.68;97807.44;10186437;29;20114;-76
2023/03/19 17:43:42;;;;;;;37.97;24.00;;;;;;;12.93;43.97;97805.81;10199584;29;20090;-77
2023/03/19 17:49:03;;;;;;;39.42;25.25;;;;;;;12.87;44.50;97815.34;10197305;29;20047;-76
2023/03/19 17:54:25;;;;;;;36.63;24.38;;;;;;;12.84;45.00;97808.16;10198050;29;20051;-78
2023/03/19 17:59:46;;;;;;;35.80;24.63;;;;;;;12.80;45.36;97813.50;10225675;29;20054;-83
2023/03/19 18:05:22;;;;;;;34.83;23.50;;;;;;;12.74;46.75;97815.22;10240602;29;20059;-84
2023/03/19 18:10:43;;;;;;;37.55;25.23;;;;;;;12.70;46.40;97814.97;10239771;29;20038;-82
2023/03/19 18:16:17;;;;;;;38.78;25.15;;;;;;;12.70;47.16;97824.09;10228385;29;20055;-83
2023/03/19 18:21:41;;;;;;;;;;;;;;;12.64;48.21;97817.41;10255093;29;20075;-83
2023/03/19 18:27:09;;;;;;;37.47;24.13;;;;;;;12.53;47.66;97810.47;10236470;29;19923;-80
2023/03/19 18:32:30;;;;;;;39.95;26.60;;;;;;;12.45;47.83;97823.97;10186535;29;20075;-79
2023/03/19 18:37:51;;;;;;;38.80;28.02;;;;;;;12.28;48.04;97816.66;10188156;29;20063;-79
2023/03/19 18:43:12;;;;;;;41.85;27.45;;;;;;;12.23;48.76;97821.25;10209092;29;20047;-81
2023/03/19 18:48:37;;;;;;;42.40;27.23;;;;;;;12.21;48.99;97818.34;10217148;29;20048;-80
2023/03/19 18:54:29;;;;;;;43.80;26.80;;;;;;;12.23;49.00;97821.25;10227658;29;20051;-80
2023/03/19 19:00:35;;;;;;;38.15;24.83;;;;;;;12.21;49.60;97829.53;10237028;29;20056;-81
2023/03/19 19:13:25;;;;;;;41.88;26.10;;;;;;;12.12;50.13;97830.34;10256040;29;20076;-80
2023/03/19 19:18:46;;;;;;;41.23;26.50;;;;;;;12.08;50.36;97824.53;10239978;29;20035;-80
2023/03/19 19:24:07;;;;;;;43.58;26.42;;;;;;;12.03;50.42;97825.59;10210079;29;20048;-80
2023/03/19 19:29:28;;;;;;;48.40;28.48;;;;;;;12.00;50.38;97821.22;10204701;29;20094;-79
2023/03/19 19:35:57;;;;;;;45.58;29.77;;;;;;;11.97;50.58;97825.94;10187894;29;20060;-77
2023/03/19 19:41:25;;;;;;;45.65;29.08;;;;;;;12.00;50.69;97826.81;10241874;29;20047;-79
2023/03/19 19:46:53;;;;;;;47.53;29.60;;;;;;;11.99;50.64;97817.69;10234963;29;20047;-79
2023/03/19 19:52:17;;;;;;;45.40;28.60;;;;;;;11.99;50.69;97819.75;10202152;29;20044;-80
2023/03/19 19:57:39;;;;;;;49.00;31.00;;;;;;;11.99;50.75;97825.34;10224810;29;20047;-80
2023/03/19 20:03:13;;;;;;;56.00;36.47;;;;;;;11.95;51.02;97828.59;10202320;29;20052;-79
2023/03/19 20:08:47;;;;;;;75.30;46.95;;;;;;;11.93;51.65;97828.47;10200013;29;20051;-79
2023/03/19 20:14:40;;;;;;;60.47;38.00;;;;;;;11.87;51.42;97832.94;10216003;29;20055;-78
2023/03/19 20:35:47;;;;;;;64.13;37.38;;;;;;;11.60;51.96;97847.28;10187939;29;20056;-81
2023/03/19 20:41:36;;;;;;;67.55;40.08;;;;;;;11.65;52.04;97855.31;10152017;29;20052;-78
2023/03/19 20:47:34;;;;;;;52.90;33.28;;;;;;;11.71;52.67;97852.19;10132241;29;20064;-79
2023/03/19 20:53:23;;;;;;;39.03;23.92;;;;;;;11.72;52.21;97857.19;10168307;29;20047;-79
2023/03/19 20:59:14;;;;;;;30.60;20.70;;;;;;;11.72;52.20;97865.56;10208447;29;20059;-79
2023/03/19 21:05:06;;;;;;;33.40;20.95;;;;;;;11.72;52.38;97867.63;10209231;29;20052;-79
2023/03/19 21:10:59;;;;;;;33.90;20.80;;;;;;;11.70;52.64;97873.84;10211057;29;20043;-79
2023/03/19 21:16:21;;;;;;;31.33;18.88;;;;;;;11.66;52.64;97876.34;10210945;29;20485;-80
2023/03/19 21:21:51;;;;;;;26.75;17.40;;;;;;;11.68;52.91;97873.72;10201010;29;20048;-79
2023/03/19 21:27:39;;;;;;;26.95;17.13;;;;;;;11.70;53.09;97876.63;10210707;29;20052;-79
2023/03/19 21:33:33;;;;;;;26.52;15.80;;;;;;;11.74;53.23;97857.31;10211301;29;20055;-80
2023/03/19 21:38:55;;;;;;;28.27;17.27;;;;;;;11.70;53.41;97871.03;10198136;29;20114;-79
2023/03/19 21:44:18;;;;;;;26.48;16.20;;;;;;;11.67;54.05;97860.31;10199111;29;20039;-79
2023/03/19 21:50:17;;;;;;;26.45;16.83;;;;;;;11.61;54.95;97868.31;10229386;29;20055;-79
2023/03/19 21:55:45;;;;;;;24.55;15.70;;;;;;;11.62;54.86;97864.19;10226059;29;20051;-79
2023/03/19 22:01:16;;;;;;;21.77;14.50;;;;;;;11.63;55.31;97866.38;10198154;29;20055;-79
2023/03/19 22:07:11;;;;;;;23.75;14.50;;;;;;;11.66;56.15;97861.66;10196343;29;20059;-79
2023/03/19 22:12:32;;;;;;;25.10;14.90;;;;;;;11.63;55.42;97848.88;10206875;29;20051;-79
2023/03/19 22:17:53;;;;;;;24.27;14.00;;;;;;;11.66;55.98;97850.47;10195803;29;20044;-80
2023/03/19 22:23:17;;;;;;;18.13;12.77;;;;;;;11.65;56.06;97855.31;10222290;29;20047;-79
2023/03/19 22:28:39;;;;;;;20.92;12.27;;;;;;;11.63;56.47;97855.19;10194807;29;20040;-79
2023/03/19 22:34:00;;;;;;;16.48;12.27;;;;;;;11.62;57.40;97853.00;10194925;29;20486;-79
2023/03/19 22:39:20;;;;;;;18.55;12.52;;;;;;;11.63;57.48;97857.25;10208533;29;20545;-79
2023/03/19 22:44:45;;;;;;;18.67;12.30;;;;;;;11.63;58.14;97855.19;10206436;29;20040;-79
2023/03/19 22:50:15;;;;;;;17.60;11.65;;;;;;;11.63;58.62;97854.47;10194144;29;20486;-79
2023/03/19 22:55:36;;;;;;;23.10;14.00;;;;;;;11.57;58.70;97854.78;10194921;29;20054;-79
2023/03/19 23:00:58;;;;;;;24.85;16.40;;;;;;;11.49;58.77;97854.28;10187546;29;20043;-80
2023/03/19 23:06:21;;;;;;;26.30;16.83;;;;;;;11.36;58.75;97846.41;10192622;29;20054;-80
2023/03/19 23:11:52;;;;;;;25.30;17.83;;;;;;;11.34;58.65;97860.25;10211009;29;20043;-79
2023/03/19 23:17:19;;;;;;;25.65;18.17;;;;;;;11.31;59.08;97861.47;10207119;29;20043;-79
2023/03/19 23:22:41;;;;;;;26.00;17.50;;;;;;;11.34;59.11;97854.66;10204136;29;20048;-79
2023/03/19 23:28:04;;;;;;;23.02;15.40;;;;;;;11.30;60.33;97848.81;10181323;29;20051;-79
2023/03/19 23:33:30;;;;;;;22.17;14.23;;;;;;;11.31;59.83;97855.88;10224526;29;20044;-79
2023/03/19 23:38:52;;;;;;;21.63;13.75;;;;;;;11.29;59.82;97850.88;10208891;29;20056;-79
2023/03/19 23:44:16;;;;;;;22.50;13.30;;;;;;;11.25;60.45;97849.88;10203572;29;20048;-79
2023/03/19 23:49:38;;;;;;;22.08;13.32;;;;;;;11.23;60.33;97852.53;10193445;29;20043;-80
2023/03/19 23:55:05;;;;;;;23.40;13.15;;;;;;;11.22;60.65;97851.06;10194611;29;20055;-79
